sensor_id;sensor_type;location;lat;lon;timestamp;pressure;altitude;pressure_sealevel;temperature;humidity
5595;BME280;1003;48.002;7.788;2023-05-19T00:00:39;99415.38;;;12.39;100.00
5595;BME280;1003;48.002;7.788;2023-05-19T00:03:06;99409.53;;;12.35;100.00
5595;BME280;1003;48.002;7.788;2023-05-19T00:05:35;99392.78;;;12.31;100.00
5595;BME280;1003;48.002;7.788;2023-05-19T00:08:07;99384.38;;;12.31;100.00
5595;BME280;1003;48.002;7.788;2023-05-19T00:10:37;99391.94;;;12.31;100.00
5595;BME280;1003;48.002;7.788;2023-05-19T00:13:05;99389.44;;;12.32;100.00
5595;BME280;1003;48.002;7.788;2023-05-19T00:15:33;99396.97;;;12.34;100.00
5595;BME280;1003;48.002;7.788;2023-05-19T00:18:02;99408.69;;;12.37;100.00
5595;BME280;1003;48.002;7.788;2023-05-19T00:20:29;99401.13;;;12.38;100.00
5595;BME280;1003;48.002;7.788;2023-05-19T00:22:56;99402.81;;;12.36;100.00
5595;BME280;1003;48.002;7.788;2023-05-19T00:25:23;99399.47;;;12.34;100.00
5595;BME280;1003;48.002;7.788;2023-05-19T00:27:51;99389.41;;;12.34;100.00
5595;BME280;1003;48.002;7.788;2023-05-19T00:30:18;99389.50;;;12.26;100.00
5595;BME280;1003;48.002;7.788;2023-05-19T00:32:47;99389.50;;;12.28;100.00
5595;BME280;1003;48.002;7.788;2023-05-19T00:35:16;99391.13;;;12.30;100.00
5595;BME280;1003;48.002;7.788;2023-05-19T00:37:43;99390.25;;;12.31;100.00
5595;BME280;1003;48.002;7.788;2023-05-19T00:40:10;99381.88;;;12.31;100.00
5595;BME280;1003;48.002;7.788;2023-05-19T00:42:37;99385.94;;;12.41;100.00
5595;BME280;1003;48.002;7.788;2023-05-19T00:45:06;99381.81;;;12.35;100.00
5595;BME280;1003;48.002;7.788;2023-05-19T00:47:33;99369.34;;;12.25;100.00
5595;BME280;1003;48.002;7.788;2023-05-19T00:50:00;99347.63;;;12.18;100.00
5595;BME280;1003;48.002;7.788;2023-05-19T00:52:29;99340.94;;;12.15;100.00
5595;BME280;1003;48.002;7.788;2023-05-19T00:54:56;99325.81;;;12.15;100.00
5595;BME280;1003;48.002;7.788;2023-05-19T00:57:23;99324.97;;;12.16;100.00
5595;BME280;1003;48.002;7.788;2023-05-19T00:59:51;99334.22;;;12.14;100.00
5595;BME280;1003;48.002;7.788;2023-05-19T01:02:19;99336.72;;;12.16;100.00
5595;BME280;1003;48.002;7.788;2023-05-19T01:04:46;99340.91;;;12.18;100.00
5595;BME280;1003;48.002;7.788;2023-05-19T01:07:24;99334.19;;;12.17;100.00
5595;BME280;1003;48.002;7.788;2023-05-19T01:09:53;99321.63;;;12.14;100.00
5595;BME280;1003;48.002;7.788;2023-05-19T01:12:21;99313.22;;;12.17;100.00
5595;BME280;1003;48.002;7.788;2023-05-19T01:14:48;99309.06;;;12.13;100.00
5595;BME280;1003;48.002;7.788;2023-05-19T01:17:23;99295.66;;;12.09;100.00
5595;BME280;1003;48.002;7.788;2023-05-19T01:20:01;99308.94;;;12.22;100.00
5595;BME280;1003;48.002;7.788;2023-05-19T01:22:55;99357.41;;;12.38;100.00
5595;BME280;1003;48.002;7.788;2023-05-19T01:26:03;99397.53;;;12.53;100.00
5595;BME280;1003;48.002;7.788;2023-05-19T01:29:07;99413.69;;;12.40;100.00
5595;BME280;1003;48.002;7.788;2023-05-19T01:31:39;99424.81;;;12.25;100.00
5595;BME280;1003;48.002;7.788;2023-05-19T01:34:11;99423.13;;;12.27;100.00
5595;BME280;1003;48.002;7.788;2023-05-19T01:36:41;99442.94;;;12.51;100.00
5595;BME280;1003;48.002;7.788;2023-05-19T01:39:10;99450.47;;;12.53;100.00
5595;BME280;1003;48.002;7.788;2023-05-19T01:41:40;99455.50;;;12.54;100.00
5595;BME280;1003;48.002;7.788;2023-05-19T01:44:08;99463.13;;;12.50;100.00
5595;BME280;1003;48.002;7.788;2023-05-19T01:46:37;99467.28;;;12.52;100.00
5595;BME280;1003;48.002;7.788;2023-05-19T01:49:06;99468.28;;;12.41;100.00
5595;BME280;1003;48.002;7.788;2023-05-19T01:51:34;99465.91;;;12.30;100.00
5595;BME280;1003;48.002;7.788;2023-05-19T01:54:01;99465.94;;;12.28;100.00
5595;BME280;1003;48.002;7.788;2023-05-19T01:56:40;99460.97;;;12.22;100.00
5595;BME280;1003;48.002;7.788;2023-05-19T01:59:29;99457.28;;;12.46;100.00
5595;BME280;1003;48.002;7.788;2023-05-19T02:02:15;99460.56;;;12.51;100.00
5595;BME280;1003;48.002;7.788;2023-05-19T02:04:54;99458.19;;;12.41;100.00
5595;BME280;1003;48.002;7.788;2023-05-19T02:07:30;99461.53;;;12.43;100.00
5595;BME280;1003;48.002;7.788;2023-05-19T02:10:08;99458.31;;;12.31;100.00
5595;BME280;1003;48.002;7.788;2023-05-19T02:12:38;99463.28;;;12.38;100.00
5595;BME280;1003;48.002;7.788;2023-05-19T02:15:11;99467.44;;;12.43;100.00
5595;BME280;1003;48.002;7.788;2023-05-19T02:17:44;99466.78;;;12.26;100.00
5595;BME280;1003;48.002;7.788;2023-05-19T02:20:15;99460.25;;;12.13;100.00
5595;BME280;1003;48.002;7.788;2023-05-19T02:22:43;99453.53;;;12.10;100.00
5595;BME280;1003;48.002;7.788;2023-05-19T02:25:11;99421.97;;;11.81;100.00
5595;BME280;1003;48.002;7.788;2023-05-19T02:27:38;99402.00;;;11.63;100.00
5595;BME280;1003;48.002;7.788;2023-05-19T02:30:07;99368.31;;;11.73;100.00
5595;BME280;1003;48.002;7.788;2023-05-19T02:32:34;99373.38;;;11.73;100.00
5595;BME280;1003;48.002;7.788;2023-05-19T02:35:04;99374.88;;;11.90;100.00
5595;BME280;1003;48.002;7.788;2023-05-19T02:37:31;99371.47;;;11.92;100.00
5595;BME280;1003;48.002;7.788;2023-05-19T02:40:00;99358.97;;;11.83;100.00
5595;BME280;1003;48.002;7.788;2023-05-19T02:42:27;99344.81;;;11.71;100.00
5595;BME280;1003;48.002;7.788;2023-05-19T02:44:54;99343.16;;;11.70;100.00
5595;BME280;1003;48.002;7.788;2023-05-19T02:47:21;99318.88;;;11.68;100.00
5595;BME280;1003;48.002;7.788;2023-05-19T02:49:48;99315.44;;;11.73;100.00
5595;BME280;1003;48.002;7.788;2023-05-19T02:52:17;99310.50;;;11.66;100.00
5595;BME280;1003;48.002;7.788;2023-05-19T02:54:44;99299.81;;;11.48;100.00
5595;BME280;1003;48.002;7.788;2023-05-19T02:57:11;99281.44;;;11.40;100.00
5595;BME280;1003;48.002;7.788;2023-05-19T02:59:38;99271.38;;;11.39;100.00
5595;BME280;1003;48.002;7.788;2023-05-19T03:02:05;99278.25;;;11.26;100.00
5595;BME280;1003;48.002;7.788;2023-05-19T03:04:32;99277.41;;;11.27;100.00
5595;BME280;1003;48.002;7.788;2023-05-19T03:07:07;99270.91;;;11.08;100.00
5595;BME280;1003;48.002;7.788;2023-05-19T03:09:36;99276.81;;;11.03;100.00
5595;BME280;1003;48.002;7.788;2023-05-19T03:12:04;99279.38;;;10.99;100.00
5595;BME280;1003;48.002;7.788;2023-05-19T03:14:33;99276.91;;;10.94;100.00
5595;BME280;1003;48.002;7.788;2023-05-19T03:17:02;99283.66;;;10.91;100.00
5595;BME280;1003;48.002;7.788;2023-05-19T03:19:32;99270.38;;;10.75;100.00
5595;BME280;1003;48.002;7.788;2023-05-19T03:21:59;99264.56;;;10.70;100.00
5595;BME280;1003;48.002;7.788;2023-05-19T03:24:26;99261.31;;;10.59;100.00
5595;BME280;1003;48.002;7.788;2023-05-19T03:26:54;99258.03;;;10.55;100.00
5595;BME280;1003;48.002;7.788;2023-05-19T03:29:24;99256.31;;;10.54;100.00
5595;BME280;1003;48.002;7.788;2023-05-19T03:31:51;99246.38;;;10.42;100.00
5595;BME280;1003;48.002;7.788;2023-05-19T03:34:18;99243.91;;;10.39;100.00
5595;BME280;1003;48.002;7.788;2023-05-19T03:36:47;99243.16;;;10.29;100.00
5595;BME280;1003;48.002;7.788;2023-05-19T03:39:15;99234.78;;;10.27;100.00
5595;BME280;1003;48.002;7.788;2023-05-19T03:41:42;99228.94;;;10.27;100.00
5595;BME280;1003;48.002;7.788;2023-05-19T03:44:10;99230.59;;;10.21;100.00
5595;BME280;1003;48.002;7.788;2023-05-19T03:46:37;99221.53;;;10.07;100.00
5595;BME280;1003;48.002;7.788;2023-05-19T03:49:04;99221.47;;;10.11;100.00
5595;BME280;1003;48.002;7.788;2023-05-19T03:51:32;99219.09;;;9.97;100.00
5595;BME280;1003;48.002;7.788;2023-05-19T03:53:59;99219.00;;;10.05;100.00
5595;BME280;1003;48.002;7.788;2023-05-19T03:56:27;99216.56;;;9.97;100.00
5595;BME280;1003;48.002;7.788;2023-05-19T03:58:54;99221.63;;;9.93;100.00
5595;BME280;1003;48.002;7.788;2023-05-19T04:01:22;99210.81;;;9.85;100.00
5595;BME280;1003;48.002;7.788;2023-05-19T04:03:49;99214.16;;;9.79;100.00
5595;BME280;1003;48.002;7.788;2023-05-19T04:06:17;99209.16;;;9.78;100.00
5595;BME280;1003;48.002;7.788;2023-05-19T04:08:44;99205.00;;;9.75;100.00
5595;BME280;1003;48.002;7.788;2023-05-19T04:11:11;99204.13;;;9.85;100.00
5595;BME280;1003;48.002;7.788;2023-05-19T04:13:38;99207.47;;;9.81;100.00
5595;BME280;1003;48.002;7.788;2023-05-19T04:16:06;99205.00;;;9.73;100.00
5595;BME280;1003;48.002;7.788;2023-05-19T04:18:34;99200.78;;;9.85;100.00
5595;BME280;1003;48.002;7.788;2023-05-19T04:21:02;99200.75;;;9.83;100.00
5595;BME280;1003;48.002;7.788;2023-05-19T04:23:29;99202.47;;;9.80;100.00
5595;BME280;1003;48.002;7.788;2023-05-19T04:25:56;99199.91;;;9.84;100.00
5595;BME280;1003;48.002;7.788;2023-05-19T04:28:23;99201.50;;;9.97;100.00
5595;BME280;1003;48.002;7.788;2023-05-19T04:30:50;99200.66;;;10.02;100.00
5595;BME280;1003;48.002;7.788;2023-05-19T04:33:17;99208.31;;;9.85;100.00
5595;BME280;1003;48.002;7.788;2023-05-19T04:35:46;99201.47;;;10.02;100.00
5595;BME280;1003;48.002;7.788;2023-05-19T04:38:15;99203.94;;;10.05;100.00
5595;BME280;1003;48.002;7.788;2023-05-19T04:40:43;99209.00;;;10.04;100.00
5595;BME280;1003;48.002;7.788;2023-05-19T04:43:10;99209.00;;;10.04;100.00
5595;BME280;1003;48.002;7.788;2023-05-19T04:45:37;99203.91;;;10.11;100.00
5595;BME280;1003;48.002;7.788;2023-05-19T04:48:07;99212.25;;;10.15;100.00
5595;BME280;1003;48.002;7.788;2023-05-19T04:50:34;99212.22;;;10.19;100.00
5595;BME280;1003;48.002;7.788;2023-05-19T04:53:04;99212.13;;;10.35;100.00
5595;BME280;1003;48.002;7.788;2023-05-19T04:55:34;99222.97;;;10.40;100.00
5595;BME280;1003;48.002;7.788;2023-05-19T04:58:02;99228.66;;;10.60;100.00
5595;BME280;1003;48.002;7.788;2023-05-19T05:00:29;99229.41;;;10.67;100.00
5595;BME280;1003;48.002;7.788;2023-05-19T05:02:56;99243.53;;;10.82;100.00
5595;BME280;1003;48.002;7.788;2023-05-19T05:05:23;99261.38;;;11.36;100.00
5595;BME280;1003;48.002;7.788;2023-05-19T05:07:50;99279.69;;;11.47;100.00
5595;BME280;1003;48.002;7.788;2023-05-19T05:10:20;99298.09;;;11.52;100.00
5595;BME280;1003;48.002;7.788;2023-05-19T05:12:48;99323.09;;;11.64;100.00
5595;BME280;1003;48.002;7.788;2023-05-19T05:15:18;99350.16;;;12.18;100.00
5595;BME280;1003;48.002;7.788;2023-05-19T05:17:46;99382.84;;;12.78;100.00
5595;BME280;1003;48.002;7.788;2023-05-19T05:20:14;99399.81;;;13.21;100.00
5595;BME280;1003;48.002;7.788;2023-05-19T05:22:42;99440.66;;;13.90;100.00
5595;BME280;1003;48.002;7.788;2023-05-19T05:25:12;99480.09;;;13.98;100.00
5595;BME280;1003;48.002;7.788;2023-05-19T05:27:41;99488.75;;;13.86;100.00
5595;BME280;1003;48.002;7.788;2023-05-19T05:30:08;99487.03;;;14.72;100.00
5595;BME280;1003;48.002;7.788;2023-05-19T05:32:36;99487.38;;;14.13;100.00
5595;BME280;1003;48.002;7.788;2023-05-19T05:35:03;99492.72;;;13.98;100.00
5595;BME280;1003;48.002;7.788;2023-05-19T05:37:31;99491.00;;;14.43;100.00
5595;BME280;1003;48.002;7.788;2023-05-19T05:39:58;99484.28;;;14.82;100.00
5595;BME280;1003;48.002;7.788;2023-05-19T05:42:25;99473.81;;;14.60;100.00
5595;BME280;1003;48.002;7.788;2023-05-19T05:44:53;99485.72;;;14.55;100.00
5595;BME280;1003;48.002;7.788;2023-05-19T05:47:21;99495.06;;;14.52;100.00
5595;BME280;1003;48.002;7.788;2023-05-19T05:49:49;99496.59;;;14.59;100.00
5595;BME280;1003;48.002;7.788;2023-05-19T05:52:19;99491.34;;;14.26;100.00
5595;BME280;1003;48.002;7.788;2023-05-19T05:54:48;99495.72;;;14.18;100.00
5595;BME280;1003;48.002;7.788;2023-05-19T05:57:16;99499.03;;;14.22;100.00
5595;BME280;1003;48.002;7.788;2023-05-19T05:59:43;99496.84;;;14.45;100.00
5595;BME280;1003;48.002;7.788;2023-05-19T06:02:13;99490.00;;;14.52;100.00
5595;BME280;1003;48.002;7.788;2023-05-19T06:04:40;99494.22;;;14.08;100.00
5595;BME280;1003;48.002;7.788;2023-05-19T06:07:07;99494.94;;;14.14;100.00
5595;BME280;1003;48.002;7.788;2023-05-19T06:09:34;99495.88;;;14.09;100.00
5595;BME280;1003;48.002;7.788;2023-05-19T06:12:02;99490.19;;;13.99;100.00
5595;BME280;1003;48.002;7.788;2023-05-19T06:14:29;99491.72;;;13.61;100.00
5595;BME280;1003;48.002;7.788;2023-05-19T06:16:56;99495.38;;;13.44;100.00
5595;BME280;1003;48.002;7.788;2023-05-19T06:19:24;99496.00;;;13.58;100.00
5595;BME280;1003;48.002;7.788;2023-05-19T06:21:51;99488.16;;;13.72;100.00
5595;BME280;1003;48.002;7.788;2023-05-19T06:24:18;99492.63;;;14.04;100.00
5595;BME280;1003;48.002;7.788;2023-05-19T06:26:45;99485.16;;;13.98;100.00
5595;BME280;1003;48.002;7.788;2023-05-19T06:29:13;99493.47;;;14.48;100.00
5595;BME280;1003;48.002;7.788;2023-05-19T06:31:40;99477.97;;;13.78;100.00
5595;BME280;1003;48.002;7.788;2023-05-19T06:34:07;99477.94;;;14.23;100.00
5595;BME280;1003;48.002;7.788;2023-05-19T06:36:38;99490.94;;;14.48;100.00
5595;BME280;1003;48.002;7.788;2023-05-19T06:39:06;99481.28;;;15.02;100.00
5595;BME280;1003;48.002;7.788;2023-05-19T06:41:33;99476.50;;;14.90;100.00
5595;BME280;1003;48.002;7.788;2023-05-19T06:44:00;99477.06;;;15.03;100.00
5595;BME280;1003;48.002;7.788;2023-05-19T06:46:27;99470.47;;;14.95;100.00
5595;BME280;1003;48.002;7.788;2023-05-19T06:48:54;99470.00;;;15.15;100.00
5595;BME280;1003;48.002;7.788;2023-05-19T06:51:22;99459.97;;;15.11;100.00
5595;BME280;1003;48.002;7.788;2023-05-19T06:53:50;99468.28;;;15.16;100.00
5595;BME280;1003;48.002;7.788;2023-05-19T06:56:18;99463.94;;;15.21;100.00
5595;BME280;1003;48.002;7.788;2023-05-19T06:58:47;99467.06;;;15.32;100.00
5595;BME280;1003;48.002;7.788;2023-05-19T07:01:14;99468.72;;;15.33;100.00
5595;BME280;1003;48.002;7.788;2023-05-19T07:03:41;99459.38;;;15.35;100.00
5595;BME280;1003;48.002;7.788;2023-05-19T07:06:08;99460.19;;;15.70;100.00
5595;BME280;1003;48.002;7.788;2023-05-19T07:08:35;99456.56;;;15.80;100.00
5595;BME280;1003;48.002;7.788;2023-05-19T07:11:04;99449.69;;;15.51;100.00
5595;BME280;1003;48.002;7.788;2023-05-19T07:13:31;99459.63;;;15.91;100.00
5595;BME280;1003;48.002;7.788;2023-05-19T07:15:58;99450.31;;;15.92;100.00
5595;BME280;1003;48.002;7.788;2023-05-19T07:18:25;99453.25;;;16.37;100.00
5595;BME280;1003;48.002;7.788;2023-05-19T07:20:56;99440.84;;;16.28;100.00
5595;BME280;1003;48.002;7.788;2023-05-19T07:23:23;99445.03;;;16.29;100.00
5595;BME280;1003;48.002;7.788;2023-05-19T07:25:53;99447.34;;;16.07;100.00
5595;BME280;1003;48.002;7.788;2023-05-19T07:28:23;99427.53;;;16.49;100.00
5595;BME280;1003;48.002;7.788;2023-05-19T07:30:50;99430.09;;;16.20;100.00
5595;BME280;1003;48.002;7.788;2023-05-19T07:33:17;99417.97;;;16.30;100.00
5595;BME280;1003;48.002;7.788;2023-05-19T07:35:45;99423.56;;;16.11;100.00
5595;BME280;1003;48.002;7.788;2023-05-19T07:38:14;99409.41;;;15.74;100.00
5595;BME280;1003;48.002;7.788;2023-05-19T07:40:41;99410.16;;;16.36;100.00
5595;BME280;1003;48.002;7.788;2023-05-19T07:43:08;99407.81;;;16.86;100.00
5595;BME280;1003;48.002;7.788;2023-05-19T07:45:37;99396.94;;;17.32;100.00
5595;BME280;1003;48.002;7.788;2023-05-19T07:48:04;99382.84;;;17.72;100.00
5595;BME280;1003;48.002;7.788;2023-05-19T07:50:32;99379.13;;;17.82;100.00
5595;BME280;1003;48.002;7.788;2023-05-19T07:52:59;99361.50;;;17.52;100.00
5595;BME280;1003;48.002;7.788;2023-05-19T07:55:26;99361.34;;;17.82;100.00
5595;BME280;1003;48.002;7.788;2023-05-19T07:57:53;99370.84;;;17.77;100.00
5595;BME280;1003;48.002;7.788;2023-05-19T08:00:21;99364.31;;;17.93;100.00
5595;BME280;1003;48.002;7.788;2023-05-19T08:02:49;99353.47;;;17.88;100.00
5595;BME280;1003;48.002;7.788;2023-05-19T08:05:17;99353.66;;;18.05;100.00
5595;BME280;1003;48.002;7.788;2023-05-19T08:07:44;99345.53;;;17.74;100.00
5595;BME280;1003;48.002;7.788;2023-05-19T08:10:11;99356.75;;;17.43;100.00
5595;BME280;1003;48.002;7.788;2023-05-19T08:12:38;99338.56;;;18.01;100.00
5595;BME280;1003;48.002;7.788;2023-05-19T08:15:07;99332.16;;;17.91;100.00
5595;BME280;1003;48.002;7.788;2023-05-19T08:17:36;99328.41;;;18.01;100.00
5595;BME280;1003;48.002;7.788;2023-05-19T08:20:06;99326.34;;;17.65;100.00
5595;BME280;1003;48.002;7.788;2023-05-19T08:22:35;99322.41;;;17.56;100.00
5595;BME280;1003;48.002;7.788;2023-05-19T08:25:02;99324.34;;;17.73;100.00
5595;BME280;1003;48.002;7.788;2023-05-19T08:27:30;99329.81;;;17.86;100.00
5595;BME280;1003;48.002;7.788;2023-05-19T08:29:58;99315.00;;;18.19;100.00
5595;BME280;1003;48.002;7.788;2023-05-19T08:32:26;99309.66;;;18.25;100.00
5595;BME280;1003;48.002;7.788;2023-05-19T08:34:53;99307.88;;;18.27;100.00
5595;BME280;1003;48.002;7.788;2023-05-19T08:37:21;99306.16;;;18.28;100.00
5595;BME280;1003;48.002;7.788;2023-05-19T08:39:48;99310.59;;;18.23;100.00
5595;BME280;1003;48.002;7.788;2023-05-19T08:42:15;99298.28;;;18.12;100.00
5595;BME280;1003;48.002;7.788;2023-05-19T08:44:42;99299.72;;;17.97;100.00
5595;BME280;1003;48.002;7.788;2023-05-19T08:47:10;99297.28;;;17.94;100.00
5595;BME280;1003;48.002;7.788;2023-05-19T08:49:43;99305.44;;;17.80;100.00
5595;BME280;1003;48.002;7.788;2023-05-19T08:52:24;99291.56;;;17.42;100.00
5595;BME280;1003;48.002;7.788;2023-05-19T08:55:03;99305.72;;;17.49;100.00
5595;BME280;1003;48.002;7.788;2023-05-19T08:57:31;99306.50;;;17.28;100.00
5595;BME280;1003;48.002;7.788;2023-05-19T08:59:59;99312.50;;;17.25;100.00
5595;BME280;1003;48.002;7.788;2023-05-19T09:02:26;99297.47;;;16.96;100.00
5595;BME280;1003;48.002;7.788;2023-05-19T09:04:55;99309.94;;;17.02;100.00
5595;BME280;1003;48.002;7.788;2023-05-19T09:07:25;99312.38;;;16.80;100.00
5595;BME280;1003;48.002;7.788;2023-05-19T09:09:53;99311.63;;;16.76;100.00
5595;BME280;1003;48.002;7.788;2023-05-19T09:12:21;99315.81;;;16.79;100.00
5595;BME280;1003;48.002;7.788;2023-05-19T09:14:48;99320.31;;;16.96;100.00
5595;BME280;1003;48.002;7.788;2023-05-19T09:17:15;99302.13;;;17.31;100.00
5595;BME280;1003;48.002;7.788;2023-05-19T09:19:44;99292.47;;;17.18;100.00
5595;BME280;1003;48.002;7.788;2023-05-19T09:22:14;99299.41;;;17.36;100.00
5595;BME280;1003;48.002;7.788;2023-05-19T09:24:45;99308.25;;;17.26;100.00
5595;BME280;1003;48.002;7.788;2023-05-19T09:27:20;99304.56;;;16.86;100.00
5595;BME280;1003;48.002;7.788;2023-05-19T09:29:48;99302.66;;;17.16;100.00
5595;BME280;1003;48.002;7.788;2023-05-19T09:32:24;99316.44;;;17.57;100.00
5595;BME280;1003;48.002;7.788;2023-05-19T09:34:52;99280.78;;;18.04;100.00
5595;BME280;1003;48.002;7.788;2023-05-19T09:37:22;99289.31;;;18.25;100.00
5595;BME280;1003;48.002;7.788;2023-05-19T09:39:52;99279.63;;;18.76;100.00
5595;BME280;1003;48.002;7.788;2023-05-19T09:42:24;99263.88;;;18.46;100.00
5595;BME280;1003;48.002;7.788;2023-05-19T09:44:59;99269.34;;;18.57;100.00
5595;BME280;1003;48.002;7.788;2023-05-19T09:47:27;99269.78;;;18.67;100.00
5595;BME280;1003;48.002;7.788;2023-05-19T09:49:56;99269.34;;;18.57;100.00
5595;BME280;1003;48.002;7.788;2023-05-19T09:52:23;99261.53;;;18.41;100.00
5595;BME280;1003;48.002;7.788;2023-05-19T09:54:52;99269.09;;;18.43;100.00
5595;BME280;1003;48.002;7.788;2023-05-19T09:57:24;99254.16;;;18.76;100.00
5595;BME280;1003;48.002;7.788;2023-05-19T09:59:54;99245.31;;;19.03;100.00
5595;BME280;1003;48.002;7.788;2023-05-19T10:02:24;99245.31;;;18.84;100.00
5595;BME280;1003;48.002;7.788;2023-05-19T10:04:53;99248.31;;;19.51;100.00
5595;BME280;1003;48.002;7.788;2023-05-19T10:07:22;99238.19;;;19.49;100.00
5595;BME280;1003;48.002;7.788;2023-05-19T10:09:53;99240.25;;;19.41;100.00
5595;BME280;1003;48.002;7.788;2023-05-19T10:12:21;99247.47;;;19.12;100.00
5595;BME280;1003;48.002;7.788;2023-05-19T10:14:50;99243.97;;;19.34;100.00
5595;BME280;1003;48.002;7.788;2023-05-19T10:17:20;99238.53;;;19.41;100.00
5595;BME280;1003;48.002;7.788;2023-05-19T10:19:49;99235.28;;;19.57;100.00
5595;BME280;1003;48.002;7.788;2023-05-19T10:22:19;99229.75;;;19.47;100.00
5595;BME280;1003;48.002;7.788;2023-05-19T10:24:46;99224.91;;;19.61;100.00
5595;BME280;1003;48.002;7.788;2023-05-19T10:27:17;99224.81;;;19.82;100.00
5595;BME280;1003;48.002;7.788;2023-05-19T10:29:49;99220.97;;;19.17;100.00
5595;BME280;1003;48.002;7.788;2023-05-19T10:32:22;99226.13;;;18.96;100.00
5595;BME280;1003;48.002;7.788;2023-05-19T10:35:19;99224.75;;;19.08;100.00
5595;BME280;1003;48.002;7.788;2023-05-19T10:37:57;99225.09;;;19.38;100.00
5595;BME280;1003;48.002;7.788;2023-05-19T10:40:32;99222.88;;;18.72;100.00
5595;BME280;1003;48.002;7.788;2023-05-19T10:43:14;99229.13;;;18.65;100.00
5595;BME280;1003;48.002;7.788;2023-05-19T10:45:51;99219.69;;;18.87;100.00
5595;BME280;1003;48.002;7.788;2023-05-19T10:48:20;99211.88;;;19.11;100.00
5595;BME280;1003;48.002;7.788;2023-05-19T10:50:48;99223.38;;;19.38;100.00
5595;BME280;1003;48.002;7.788;2023-05-19T10:53:18;99234.59;;;19.15;100.00
5595;BME280;1003;48.002;7.788;2023-05-19T10:55:50;99224.22;;;18.81;100.00
5595;BME280;1003;48.002;7.788;2023-05-19T10:58:47;99222.22;;;18.69;100.00
5595;BME280;1003;48.002;7.788;2023-05-19T11:01:16;99218.75;;;18.90;100.00
5595;BME280;1003;48.002;7.788;2023-05-19T11:03:46;99217.66;;;19.14;100.00
5595;BME280;1003;48.002;7.788;2023-05-19T11:06:23;99217.56;;;18.97;100.00
5595;BME280;1003;48.002;7.788;2023-05-19T11:08:57;99216.31;;;18.87;100.00
5595;BME280;1003;48.002;7.788;2023-05-19T11:11:26;99202.84;;;19.23;100.00
5595;BME280;1003;48.002;7.788;2023-05-19T11:13:55;99206.22;;;19.04;100.00
5595;BME280;1003;48.002;7.788;2023-05-19T11:16:30;99198.03;;;19.17;100.00
5595;BME280;1003;48.002;7.788;2023-05-19T11:18:59;99200.78;;;19.50;100.00
5595;BME280;1003;48.002;7.788;2023-05-19T11:21:41;99203.28;;;20.05;100.00
5595;BME280;1003;48.002;7.788;2023-05-19T11:24:09;99198.41;;;20.00;100.00
5595;BME280;1003;48.002;7.788;2023-05-19T11:26:40;99195.09;;;20.33;100.00
5595;BME280;1003;48.002;7.788;2023-05-19T11:29:09;99187.97;;;20.39;100.00
5595;BME280;1003;48.002;7.788;2023-05-19T11:31:38;99188.94;;;20.37;100.00
5595;BME280;1003;48.002;7.788;2023-05-19T11:34:06;99176.66;;;20.78;100.00
5595;BME280;1003;48.002;7.788;2023-05-19T11:36:35;99178.34;;;21.11;100.00
5595;BME280;1003;48.002;7.788;2023-05-19T11:39:04;99178.47;;;21.08;99.36
5595;BME280;1003;48.002;7.788;2023-05-19T11:41:31;99170.66;;;21.27;100.00
5595;BME280;1003;48.002;7.788;2023-05-19T11:43:58;99178.91;;;21.16;98.37
5595;BME280;1003;48.002;7.788;2023-05-19T11:46:27;99175.03;;;20.60;99.82
5595;BME280;1003;48.002;7.788;2023-05-19T11:48:57;99178.38;;;20.10;100.00
5595;BME280;1003;48.002;7.788;2023-05-19T11:51:24;99175.22;;;20.39;100.00
5595;BME280;1003;48.002;7.788;2023-05-19T11:53:51;99170.84;;;20.41;100.00
5595;BME280;1003;48.002;7.788;2023-05-19T11:56:19;99172.50;;;20.25;100.00
5595;BME280;1003;48.002;7.788;2023-05-19T11:58:47;99169.34;;;19.85;100.00
5595;BME280;1003;48.002;7.788;2023-05-19T12:01:14;99172.81;;;20.19;100.00
5595;BME280;1003;48.002;7.788;2023-05-19T12:03:43;99164.94;;;20.24;100.00
5595;BME280;1003;48.002;7.788;2023-05-19T12:06:10;99171.97;;;20.53;100.00
5595;BME280;1003;48.002;7.788;2023-05-19T12:08:42;99170.44;;;20.66;98.01
5595;BME280;1003;48.002;7.788;2023-05-19T12:11:10;99165.94;;;20.87;100.00
5595;BME280;1003;48.002;7.788;2023-05-19T12:13:37;99169.88;;;20.93;100.00
5595;BME280;1003;48.002;7.788;2023-05-19T12:16:05;99168.75;;;21.14;96.11
5595;BME280;1003;48.002;7.788;2023-05-19T12:18:36;99162.41;;;21.06;98.32
5595;BME280;1003;48.002;7.788;2023-05-19T12:21:05;99155.13;;;20.98;94.80
5595;BME280;1003;48.002;7.788;2023-05-19T12:23:33;99153.41;;;21.14;94.62
5595;BME280;1003;48.002;7.788;2023-05-19T12:26:04;99151.84;;;20.96;95.49
5595;BME280;1003;48.002;7.788;2023-05-19T12:28:32;99152.19;;;20.90;98.88
5595;BME280;1003;48.002;7.788;2023-05-19T12:31:01;99163.97;;;20.92;99.00
5595;BME280;1003;48.002;7.788;2023-05-19T12:33:31;99161.84;;;21.01;97.45
5595;BME280;1003;48.002;7.788;2023-05-19T12:35:59;99163.94;;;20.77;95.23
5595;BME280;1003;48.002;7.788;2023-05-19T12:38:28;99151.94;;;20.79;96.10
5595;BME280;1003;48.002;7.788;2023-05-19T12:40:57;99153.72;;;20.92;100.00
5595;BME280;1003;48.002;7.788;2023-05-19T12:43:25;99161.38;;;20.77;100.00
5595;BME280;1003;48.002;7.788;2023-05-19T12:45:52;99166.47;;;20.43;100.00
5595;BME280;1003;48.002;7.788;2023-05-19T12:48:21;99158.41;;;20.68;98.99
5595;BME280;1003;48.002;7.788;2023-05-19T12:50:51;99148.63;;;21.08;100.00
5595;BME280;1003;48.002;7.788;2023-05-19T12:53:20;99155.94;;;21.32;100.00
5595;BME280;1003;48.002;7.788;2023-05-19T12:55:51;99148.72;;;21.22;97.67
5595;BME280;1003;48.002;7.788;2023-05-19T12:58:19;99153.81;;;20.91;98.08
5595;BME280;1003;48.002;7.788;2023-05-19T13:00:47;99158.28;;;21.03;98.56
5595;BME280;1003;48.002;7.788;2023-05-19T13:03:16;99159.03;;;21.05;95.53
5595;BME280;1003;48.002;7.788;2023-05-19T13:05:46;99153.31;;;20.68;96.45
5595;BME280;1003;48.002;7.788;2023-05-19T13:08:16;99147.75;;;20.93;99.01
5595;BME280;1003;48.002;7.788;2023-05-19T13:10:45;99142.38;;;21.14;100.00
5595;BME280;1003;48.002;7.788;2023-05-19T13:13:15;99141.31;;;21.49;100.00
5595;BME280;1003;48.002;7.788;2023-05-19T13:15:44;99146.44;;;21.34;99.51
5595;BME280;1003;48.002;7.788;2023-05-19T13:18:14;99143.38;;;21.27;99.57
5595;BME280;1003;48.002;7.788;2023-05-19T13:20:43;99142.69;;;21.08;99.86
5595;BME280;1003;48.002;7.788;2023-05-19T13:23:12;99158.41;;;21.33;100.00